createdAt,value
2023-02-03T00:00:07.673Z,17.30
2023-02-03T00:02:41.211Z,15.98
2023-02-03T00:05:09.238Z,14.63
2023-02-03T00:07:38.887Z,15.40
2023-02-03T00:10:07.228Z,15.23
2023-02-03T00:12:34.556Z,15.30
2023-02-03T00:15:01.913Z,14.95
2023-02-03T00:17:28.686Z,15.50
2023-02-03T00:19:55.959Z,14.70
2023-02-03T00:22:22.605Z,16.65
2023-02-03T00:24:49.893Z,14.82
2023-02-03T00:27:16.561Z,15.07
2023-02-03T00:29:43.898Z,14.65
2023-02-03T00:32:10.694Z,14.65
2023-02-03T00:34:38.039Z,14.57
2023-02-03T00:37:04.710Z,13.38
2023-02-03T00:39:31.638Z,13.15
2023-02-03T00:41:58.635Z,12.23
2023-02-03T00:44:25.317Z,14.10
2023-02-03T00:46:52.589Z,12.43
2023-02-03T00:49:19.207Z,13.23
2023-02-03T00:51:46.478Z,12.65
2023-02-03T00:54:14.065Z,12.40
2023-02-03T00:56:41.771Z,12.13
2023-02-03T00:59:08.477Z,12.35
2023-02-03T01:01:36.453Z,10.98
2023-02-03T01:04:04.134Z,9.98
2023-02-03T01:06:33.743Z,11.35
2023-02-03T01:09:03.549Z,10.65
2023-02-03T01:11:32.243Z,10.80
2023-02-03T01:14:01.507Z,9.65
2023-02-03T01:16:31.274Z,9.45
2023-02-03T01:18:58.023Z,9.90
2023-02-03T01:21:26.763Z,8.70
2023-02-03T01:23:54.901Z,9.52
2023-02-03T01:26:23.754Z,10.15
2023-02-03T01:28:58.441Z,9.93
2023-02-03T01:31:40.591Z,10.23
2023-02-03T01:34:10.820Z,9.75
2023-02-03T01:36:38.449Z,9.55
2023-02-03T01:39:06.113Z,9.98
2023-02-03T01:41:36.609Z,9.43
2023-02-03T01:44:32.073Z,9.82
2023-02-03T01:46:59.495Z,9.23
2023-02-03T01:49:32.190Z,9.73
2023-02-03T01:54:34.490Z,9.38
2023-02-03T01:57:05.294Z,8.75
2023-02-03T01:59:34.529Z,8.45
2023-02-03T02:02:03.830Z,8.68
2023-02-03T02:04:40.152Z,6.85
2023-02-03T02:07:08.497Z,7.65
2023-02-03T02:09:35.560Z,8.63
2023-02-03T02:12:02.926Z,8.27
2023-02-03T02:14:29.528Z,8.65
2023-02-03T02:17:18.937Z,7.55
2023-02-03T02:20:04.203Z,7.38
2023-02-03T02:23:00.114Z,7.38
2023-02-03T02:25:29.761Z,7.88
2023-02-03T02:28:22.019Z,7.57
2023-02-03T02:31:08.111Z,6.63
2023-02-03T02:33:53.935Z,6.95
2023-02-03T02:36:37.419Z,6.95
2023-02-03T02:39:18.105Z,7.05
2023-02-03T02:41:49.636Z,6.55
2023-02-03T02:44:22.492Z,5.55
2023-02-03T02:46:54.622Z,7.03
2023-02-03T02:49:47.336Z,7.53
2023-02-03T02:52:18.106Z,7.85
2023-02-03T02:54:51.351Z,8.30
2023-02-03T02:57:22.217Z,8.25
2023-02-03T02:59:49.936Z,8.35
2023-02-03T03:02:18.176Z,7.78
2023-02-03T03:04:48.083Z,7.72
2023-02-03T03:07:19.305Z,8.10
2023-02-03T03:09:53.591Z,8.18
2023-02-03T03:12:36.554Z,8.13
2023-02-03T03:15:16.954Z,8.85
2023-02-03T03:18:06.657Z,8.68
2023-02-03T03:20:37.661Z,8.48
2023-02-03T03:23:09.472Z,8.38
2023-02-03T03:26:03.236Z,8.63
2023-02-03T03:31:09.842Z,8.77
2023-02-03T03:33:36.711Z,8.43
2023-02-03T03:36:14.559Z,8.20
2023-02-03T03:38:45.509Z,8.13
2023-02-03T03:41:30.631Z,8.13
2023-02-03T03:44:02.066Z,7.43
2023-02-03T03:46:36.281Z,7.20
2023-02-03T03:49:04.880Z,7.30
2023-02-03T03:51:45.076Z,7.78
2023-02-03T03:54:15.508Z,7.78
2023-02-03T03:57:04.604Z,6.85
2023-02-03T03:59:34.278Z,7.13
2023-02-03T04:02:04.502Z,6.28
2023-02-03T04:04:34.515Z,6.35
2023-02-03T04:07:01.239Z,5.80
2023-02-03T04:09:28.187Z,5.10
2023-02-03T04:12:06.143Z,5.72
2023-02-03T04:14:35.617Z,4.95
2023-02-03T04:17:02.943Z,5.25
2023-02-03T04:19:29.694Z,5.00
2023-02-03T04:21:57.544Z,5.47
2023-02-03T04:24:24.296Z,4.85
2023-02-03T04:26:51.854Z,4.60
2023-02-03T04:29:18.524Z,5.38
2023-02-03T04:31:45.895Z,4.18
2023-02-03T04:34:12.558Z,4.55
2023-02-03T04:36:39.885Z,4.53
2023-02-03T04:39:06.724Z,4.03
2023-02-03T04:41:34.033Z,4.88
2023-02-03T04:44:00.858Z,4.85
2023-02-03T04:46:28.118Z,4.50
2023-02-03T04:48:54.687Z,4.25
2023-02-03T04:51:22.045Z,4.80
2023-02-03T04:53:48.699Z,4.18
2023-02-03T04:56:16.790Z,4.63
2023-02-03T04:58:43.417Z,4.00
2023-02-03T05:01:10.918Z,4.60
2023-02-03T05:03:37.742Z,3.97
2023-02-03T05:06:05.854Z,4.18
2023-02-03T05:08:33.776Z,4.50
2023-02-03T05:11:02.303Z,4.13
2023-02-03T05:13:29.738Z,4.57
2023-02-03T05:15:57.225Z,3.75
2023-02-03T05:18:23.876Z,3.90
2023-02-03T05:20:51.198Z,3.60
2023-02-03T05:23:17.799Z,3.40
2023-02-03T05:25:45.658Z,4.15
2023-02-03T05:28:12.414Z,3.17
2023-02-03T05:30:39.827Z,3.45
2023-02-03T05:33:06.571Z,3.30
2023-02-03T05:35:33.591Z,3.67
2023-02-03T05:38:01.345Z,3.40
2023-02-03T05:40:46.693Z,3.42
2023-02-03T05:43:13.795Z,2.92
2023-02-03T05:45:41.121Z,3.65
2023-02-03T05:48:08.508Z,3.65
2023-02-03T05:50:38.572Z,3.08
2023-02-03T05:53:09.290Z,2.90
2023-02-03T05:55:37.593Z,3.40
2023-02-03T05:58:05.665Z,3.08
2023-02-03T06:00:32.697Z,2.90
2023-02-03T06:03:02.666Z,2.97
2023-02-03T06:05:31.307Z,2.90
2023-02-03T06:07:59.007Z,3.20
2023-02-03T06:10:26.744Z,3.15
2023-02-03T06:12:54.580Z,2.83
2023-02-03T06:15:21.254Z,2.90
2023-02-03T06:17:49.587Z,2.70
2023-02-03T06:20:18.184Z,2.97
2023-02-03T06:22:45.694Z,2.78
2023-02-03T06:25:14.223Z,3.08
2023-02-03T06:27:42.495Z,3.15
2023-02-03T06:30:11.182Z,2.80
2023-02-03T06:32:38.580Z,2.55
2023-02-03T06:35:05.594Z,3.60
2023-02-03T06:37:32.712Z,2.88
2023-02-03T06:39:59.306Z,2.88
2023-02-03T06:42:26.566Z,3.03
2023-02-03T06:44:54.969Z,3.03
2023-02-03T06:47:22.246Z,2.55
2023-02-03T06:49:49.016Z,3.05
2023-02-03T06:52:16.258Z,3.03
2023-02-03T06:54:42.995Z,2.80
2023-02-03T06:57:10.266Z,2.88
2023-02-03T06:59:36.892Z,3.20
2023-02-03T07:02:04.842Z,3.00
2023-02-03T07:04:31.415Z,2.70
2023-02-03T07:06:58.819Z,3.25
2023-02-03T07:09:25.495Z,3.35
2023-02-03T07:11:52.745Z,3.55
2023-02-03T07:14:19.353Z,3.20
2023-02-03T07:16:46.634Z,3.25
2023-02-03T07:19:13.274Z,2.75
2023-02-03T07:21:40.201Z,2.45
2023-02-03T07:24:08.260Z,3.63
2023-02-03T07:26:34.846Z,2.80
2023-02-03T07:29:02.227Z,2.58
2023-02-03T07:31:28.899Z,2.97
2023-02-03T07:33:56.747Z,3.08
2023-02-03T07:36:24.353Z,3.25
2023-02-03T07:38:51.665Z,2.80
2023-02-03T07:41:18.382Z,2.90
2023-02-03T07:43:45.933Z,2.50
2023-02-03T07:46:12.874Z,3.25
2023-02-03T07:48:40.163Z,3.20
2023-02-03T07:51:06.848Z,2.97
2023-02-03T07:53:34.319Z,3.00
2023-02-03T07:56:02.055Z,3.00
2023-02-03T07:58:30.123Z,3.03
2023-02-03T08:00:56.930Z,2.75
2023-02-03T08:03:24.357Z,3.05
2023-02-03T08:05:52.230Z,3.85
2023-02-03T08:08:19.558Z,3.33
2023-02-03T08:10:46.185Z,3.10
2023-02-03T08:13:13.604Z,3.55
2023-02-03T08:15:40.216Z,3.67
2023-02-03T08:18:09.452Z,3.17
2023-02-03T08:20:36.155Z,4.07
2023-02-03T08:23:03.531Z,4.32
2023-02-03T08:25:30.409Z,3.95
2023-02-03T08:27:57.705Z,3.55
2023-02-03T08:30:24.848Z,4.40
2023-02-03T08:32:52.069Z,3.78
2023-02-03T08:35:18.754Z,3.58
2023-02-03T08:37:45.999Z,4.25
2023-02-03T08:40:12.825Z,4.40
2023-02-03T08:42:39.973Z,4.60
2023-02-03T08:45:08.316Z,4.10
2023-02-03T08:47:36.711Z,4.20
2023-02-03T08:50:06.332Z,5.10
2023-02-03T08:52:32.990Z,4.75
2023-02-03T08:55:00.278Z,4.90
2023-02-03T08:57:26.924Z,5.43
2023-02-03T08:59:55.219Z,5.97
2023-02-03T09:02:21.958Z,6.00
2023-02-03T09:04:50.540Z,5.72
2023-02-03T09:07:17.485Z,5.45
2023-02-03T09:09:44.606Z,7.15
2023-02-03T09:12:12.856Z,6.55
2023-02-03T09:14:40.104Z,6.80
2023-02-03T09:17:08.295Z,6.30
2023-02-03T09:19:36.577Z,6.70
2023-02-03T09:22:04.451Z,6.88
2023-02-03T09:24:31.743Z,7.13
2023-02-03T09:27:00.816Z,7.55
2023-02-03T09:29:28.184Z,7.40
2023-02-03T09:31:54.972Z,7.80
2023-02-03T09:34:22.747Z,7.78
2023-02-03T09:36:51.180Z,7.72
2023-02-03T09:39:17.964Z,8.05
2023-02-03T09:42:03.822Z,8.45
2023-02-03T09:44:42.079Z,8.50
2023-02-03T09:47:20.358Z,9.30
2023-02-03T09:49:51.583Z,8.52
2023-02-03T09:52:24.600Z,9.05
2023-02-03T09:55:01.019Z,9.30
2023-02-03T09:57:30.859Z,8.98
2023-02-03T10:00:02.088Z,10.57
2023-02-03T10:02:52.921Z,10.98
2023-02-03T10:05:23.325Z,25.23
2023-02-03T10:08:22.584Z,24.63
2023-02-03T10:11:10.998Z,10.93
2023-02-03T10:13:47.333Z,12.75
2023-02-03T10:16:40.716Z,11.75
2023-02-03T10:19:20.652Z,11.25
2023-02-03T10:21:52.560Z,11.55
2023-02-03T10:24:25.382Z,11.55
2023-02-03T10:26:53.033Z,12.55
2023-02-03T10:29:32.968Z,12.68
2023-02-03T10:32:00.765Z,11.07
2023-02-03T10:34:27.643Z,10.82
2023-02-03T10:36:58.021Z,11.32
2023-02-03T10:39:43.660Z,11.48
2023-02-03T10:42:12.534Z,11.85
2023-02-03T10:44:47.719Z,11.00
2023-02-03T10:47:23.512Z,10.90
2023-02-03T10:49:52.675Z,10.80
2023-02-03T10:52:32.523Z,10.57
2023-02-03T10:55:28.916Z,10.07
2023-02-03T10:57:57.663Z,10.70
2023-02-03T11:00:28.908Z,9.07
2023-02-03T11:03:31.179Z,9.85
2023-02-03T11:06:16.870Z,10.73
2023-02-03T11:08:46.882Z,9.60
2023-02-03T11:11:15.773Z,9.23
2023-02-03T11:13:43.175Z,9.35
2023-02-03T11:16:18.154Z,8.10
2023-02-03T11:19:15.157Z,7.63
2023-02-03T11:21:46.078Z,7.72
2023-02-03T11:24:19.204Z,7.32
2023-02-03T11:26:57.086Z,8.43
2023-02-03T11:29:29.738Z,6.95
2023-02-03T11:31:59.734Z,7.00
2023-02-03T11:34:37.047Z,6.13
2023-02-03T11:37:37.469Z,5.78
2023-02-03T11:40:07.281Z,5.00
2023-02-03T11:42:41.298Z,5.00
2023-02-03T11:45:17.911Z,5.35
2023-02-03T11:47:48.166Z,4.32
2023-02-03T11:50:30.808Z,5.00
2023-02-03T11:53:13.988Z,4.35
2023-02-03T11:55:50.321Z,4.70
2023-02-03T11:58:39.468Z,4.28
2023-02-03T12:01:21.170Z,3.83
2023-02-03T12:04:12.426Z,4.10
2023-02-03T12:07:17.029Z,4.65
2023-02-03T12:09:58.870Z,5.13
2023-02-03T12:12:51.144Z,5.35
2023-02-03T12:16:01.808Z,4.10
2023-02-03T12:19:06.268Z,4.43
2023-02-03T12:21:47.470Z,4.53
2023-02-03T12:24:29.166Z,4.55
2023-02-03T12:27:05.287Z,4.57
2023-02-03T12:29:38.856Z,4.72
2023-02-03T12:32:36.141Z,5.07
2023-02-03T12:35:18.944Z,4.90
2023-02-03T12:37:58.938Z,4.03
2023-02-03T12:40:32.221Z,4.90
2023-02-03T12:45:36.772Z,4.30
2023-02-03T12:48:11.983Z,4.13
2023-02-03T12:50:50.452Z,4.82
2023-02-03T12:53:34.914Z,6.00
2023-02-03T12:56:14.855Z,5.90
2023-02-03T12:58:54.153Z,5.30
2023-02-03T13:01:30.805Z,4.13
2023-02-03T13:04:27.664Z,4.93
2023-02-03T13:07:04.772Z,4.95
2023-02-03T13:09:57.116Z,4.60
2023-02-03T13:12:31.089Z,4.88
2023-02-03T13:15:39.023Z,5.10
2023-02-03T13:18:29.408Z,5.40
2023-02-03T13:20:57.428Z,5.07
2023-02-03T13:23:24.914Z,5.28
2023-02-03T13:26:14.123Z,5.20
2023-02-03T13:29:06.253Z,5.05
2023-02-03T13:31:57.260Z,4.63
2023-02-03T13:34:55.493Z,6.28
2023-02-03T13:37:49.641Z,5.18
2023-02-03T13:40:19.784Z,5.40
2023-02-03T13:42:52.642Z,5.20
2023-02-03T13:45:33.120Z,4.80
2023-02-03T13:48:24.297Z,4.95
2023-02-03T13:51:21.747Z,5.22
2023-02-03T13:53:50.838Z,5.22
2023-02-03T13:56:21.874Z,5.10
2023-02-03T13:59:07.424Z,5.13
2023-02-03T14:01:39.748Z,4.63
2023-02-03T14:04:32.020Z,5.32
2023-02-03T14:07:01.646Z,5.47
2023-02-03T14:09:31.915Z,5.05
2023-02-03T14:12:29.710Z,5.10
2023-02-03T14:15:05.025Z,3.90
2023-02-03T14:17:34.776Z,4.07
2023-02-03T14:20:04.336Z,4.68
2023-02-03T14:22:31.852Z,3.92
2023-02-03T14:25:05.792Z,4.15
2023-02-03T14:27:32.533Z,4.05
2023-02-03T14:30:17.753Z,4.60
2023-02-03T14:32:59.446Z,4.30
2023-02-03T14:35:40.734Z,3.47
2023-02-03T14:38:10.862Z,3.83
2023-02-03T14:41:02.786Z,3.53
2023-02-03T14:43:41.134Z,3.90
2023-02-03T14:46:35.639Z,4.88
2023-02-03T14:49:21.100Z,9.57
2023-02-03T14:52:25.758Z,6.85
2023-02-03T14:55:16.228Z,5.78
2023-02-03T14:57:56.944Z,5.45
2023-02-03T15:00:31.491Z,4.85
2023-02-03T15:03:10.088Z,4.75
2023-02-03T15:05:50.304Z,4.47
2023-02-03T15:08:41.608Z,4.32
2023-02-03T15:11:27.977Z,5.40
2023-02-03T15:13:56.773Z,7.25
2023-02-03T15:16:25.549Z,5.70
2023-02-03T15:18:58.315Z,6.18
2023-02-03T15:21:26.036Z,5.85
2023-02-03T15:23:53.826Z,7.95
2023-02-03T15:26:25.893Z,10.65
2023-02-03T15:28:56.576Z,6.97
2023-02-03T15:31:33.713Z,6.07
2023-02-03T15:34:15.064Z,7.82
2023-02-03T15:36:48.246Z,6.00
2023-02-03T15:39:31.829Z,6.45
2023-02-03T15:44:40.170Z,9.93
2023-02-03T15:47:40.053Z,11.77
2023-02-03T15:50:21.311Z,8.43
2023-02-03T15:52:50.732Z,18.50
2023-02-03T15:55:28.557Z,7.78
2023-02-03T15:57:55.435Z,19.50
2023-02-03T16:00:32.527Z,17.15
2023-02-03T16:03:00.822Z,17.65
2023-02-03T16:05:32.568Z,11.20
2023-02-03T16:08:37.112Z,15.38
2023-02-03T16:11:36.564Z,12.43
2023-02-03T16:14:06.789Z,6.25
2023-02-03T16:16:41.519Z,11.48
2023-02-03T16:19:17.175Z,12.70
2023-02-03T16:21:50.506Z,10.32
2023-02-03T16:24:42.594Z,8.18
2023-02-03T16:27:27.716Z,6.30
2023-02-03T16:30:33.860Z,9.13
2023-02-03T16:33:29.089Z,6.88
2023-02-03T16:36:17.121Z,9.30
2023-02-03T16:39:09.638Z,10.50
2023-02-03T16:41:55.688Z,9.13
2023-02-03T16:44:41.142Z,9.05
2023-02-03T16:47:49.861Z,7.28
2023-02-03T16:50:42.766Z,14.98
2023-02-03T16:53:14.924Z,11.75
2023-02-03T16:55:43.556Z,8.77
2023-02-03T16:58:12.332Z,9.50
2023-02-03T17:00:43.588Z,8.65
2023-02-03T17:03:21.931Z,8.90
2023-02-03T17:05:50.660Z,11.80
2023-02-03T17:08:20.003Z,10.05
2023-02-03T17:10:48.343Z,11.45
2023-02-03T17:13:16.462Z,8.88
2023-02-03T17:15:50.122Z,8.95
2023-02-03T17:18:16.969Z,6.60
2023-02-03T17:20:45.160Z,8.30
2023-02-03T17:23:12.876Z,6.68
2023-02-03T17:25:40.479Z,5.55
2023-02-03T17:28:08.782Z,5.28
2023-02-03T17:30:36.504Z,6.30
2023-02-03T17:33:12.444Z,34.97
2023-02-03T17:35:45.392Z,19.67
2023-02-03T17:38:13.820Z,10.95
2023-02-03T17:54:29.057Z,13.32
2023-02-03T17:56:56.315Z,12.93
2023-02-03T17:59:23.206Z,12.07
2023-02-03T18:01:50.514Z,16.50
2023-02-03T18:04:17.126Z,12.07
2023-02-03T18:06:44.966Z,9.82
2023-02-03T18:09:13.978Z,11.02
2023-02-03T18:11:41.314Z,8.57
2023-02-03T18:14:07.961Z,6.22
2023-02-03T18:16:36.299Z,9.52
2023-02-03T18:19:09.372Z,7.43
2023-02-03T18:21:39.125Z,7.25
2023-02-03T18:24:06.137Z,6.45
2023-02-03T18:26:37.236Z,6.78
2023-02-03T18:29:05.402Z,6.43
2023-02-03T18:31:32.844Z,5.55
2023-02-03T18:34:03.797Z,6.43
2023-02-03T18:36:32.418Z,5.63
2023-02-03T18:38:59.237Z,6.38
2023-02-03T18:41:27.064Z,8.43
2023-02-03T18:43:54.614Z,5.60
2023-02-03T18:46:28.112Z,7.28
2023-02-03T18:48:56.076Z,7.38
2023-02-03T18:51:24.595Z,7.53
2023-02-03T18:53:52.547Z,7.15
2023-02-03T18:56:22.591Z,7.93
2023-02-03T18:58:49.408Z,6.88
2023-02-03T19:01:30.988Z,7.20
2023-02-03T19:03:59.969Z,8.43
2023-02-03T19:06:30.518Z,6.80
2023-02-03T19:08:58.679Z,10.65
2023-02-03T19:11:25.997Z,9.60
2023-02-03T19:13:53.307Z,10.73
2023-02-03T19:16:19.934Z,10.65
2023-02-03T19:18:47.851Z,12.80
2023-02-03T19:21:14.730Z,11.80
2023-02-03T19:23:42.634Z,17.40
2023-02-03T19:26:10.021Z,12.85
2023-02-03T19:28:37.633Z,11.13
2023-02-03T19:31:10.489Z,11.90
2023-02-03T19:33:38.157Z,11.05
2023-02-03T19:36:06.407Z,11.23
2023-02-03T19:38:33.511Z,11.63
2023-02-03T19:41:01.576Z,9.98
2023-02-03T19:43:32.089Z,11.50
2023-02-03T19:45:59.232Z,10.32
2023-02-03T19:48:26.742Z,11.50
2023-02-03T19:50:53.732Z,12.90
2023-02-03T19:53:22.026Z,12.23
2023-02-03T19:55:48.724Z,11.35
2023-02-03T19:58:16.178Z,12.77
2023-02-03T20:00:43.517Z,9.43
2023-02-03T20:03:10.919Z,9.55
2023-02-03T20:05:37.888Z,10.63
2023-02-03T20:08:05.819Z,10.93
2023-02-03T20:10:32.930Z,8.95
2023-02-03T20:13:01.039Z,8.55
2023-02-03T20:15:29.999Z,8.93
2023-02-03T20:17:57.335Z,10.25
2023-02-03T20:20:24.104Z,8.80
2023-02-03T20:22:51.404Z,7.35
2023-02-03T20:25:19.028Z,7.47
2023-02-03T20:27:46.592Z,8.35
2023-02-03T20:30:13.674Z,7.97
2023-02-03T20:32:41.066Z,6.32
2023-02-03T20:35:08.544Z,7.45
2023-02-03T20:37:36.454Z,8.13
2023-02-03T20:40:10.170Z,7.18
2023-02-03T20:42:36.818Z,6.10
2023-02-03T20:45:14.588Z,7.05
2023-02-03T20:47:41.573Z,6.78
2023-02-03T20:50:18.593Z,7.03
2023-02-03T20:52:46.475Z,6.78
2023-02-03T20:55:15.160Z,6.95
2023-02-03T20:57:41.753Z,7.22
2023-02-03T21:00:15.538Z,7.18
2023-02-03T21:03:01.476Z,6.82
2023-02-03T21:05:37.024Z,6.97
2023-02-03T21:08:12.083Z,7.13
2023-02-03T21:10:41.019Z,6.53
2023-02-03T21:13:24.608Z,7.07
2023-02-03T21:15:54.066Z,6.75
2023-02-03T21:18:53.052Z,6.95
2023-02-03T21:21:32.406Z,7.25
2023-02-03T21:23:59.250Z,6.78
2023-02-03T21:26:29.026Z,6.60
2023-02-03T21:29:00.938Z,5.80
2023-02-03T21:31:34.662Z,7.47
2023-02-03T21:34:18.138Z,9.20
2023-02-03T21:36:45.401Z,7.55
2023-02-03T21:39:32.295Z,7.43
2023-02-03T21:42:41.328Z,23.17
2023-02-03T21:45:35.564Z,12.00
2023-02-03T21:48:24.980Z,11.90
2023-02-03T21:50:54.076Z,22.88
2023-02-03T21:53:35.220Z,17.83
2023-02-03T21:56:18.740Z,14.70
2023-02-03T21:58:47.385Z,13.35
2023-02-03T22:01:18.423Z,13.02
2023-02-03T22:03:51.298Z,12.48
2023-02-03T22:06:29.553Z,9.07
2023-02-03T22:08:58.564Z,9.10
2023-02-03T22:11:30.512Z,9.23
2023-02-03T22:13:57.517Z,11.93
2023-02-03T22:16:25.396Z,7.28
2023-02-03T22:18:52.239Z,8.52
2023-02-03T22:21:19.262Z,9.45
2023-02-03T22:23:47.015Z,8.63
2023-02-03T22:26:15.431Z,11.65
2023-02-03T22:28:42.556Z,10.32
2023-02-03T22:31:11.827Z,8.73
2023-02-03T22:33:40.265Z,7.85
2023-02-03T22:36:08.437Z,7.78
2023-02-03T22:38:36.446Z,9.38
2023-02-03T22:41:03.720Z,8.07
2023-02-03T22:43:31.366Z,11.73
2023-02-03T22:45:58.397Z,7.53
2023-02-03T22:48:25.916Z,9.73
2023-02-03T22:50:52.917Z,16.48
2023-02-03T22:53:19.998Z,10.20
2023-02-03T22:55:46.674Z,12.70
2023-02-03T22:58:13.920Z,7.50
2023-02-03T23:00:40.718Z,12.45
2023-02-03T23:03:08.017Z,8.65
2023-02-03T23:05:34.750Z,11.88
2023-02-03T23:08:02.216Z,14.95
2023-02-03T23:10:32.363Z,14.45
2023-02-03T23:13:00.950Z,16.63
2023-02-03T23:15:28.416Z,9.25
2023-02-03T23:17:58.602Z,19.15
2023-02-03T23:20:25.252Z,17.08
2023-02-03T23:22:52.308Z,16.70
2023-02-03T23:25:18.940Z,7.43
2023-02-03T23:27:46.525Z,11.40
2023-02-03T23:30:14.364Z,8.88
2023-02-03T23:32:41.985Z,10.32
2023-02-03T23:35:28.146Z,7.63
2023-02-03T23:37:55.637Z,15.48
2023-02-03T23:40:22.837Z,12.38
2023-02-03T23:42:50.415Z,8.82
2023-02-03T23:45:17.260Z,17.23
2023-02-03T23:47:46.093Z,13.23
2023-02-03T23:50:15.632Z,9.20
2023-02-03T23:52:43.045Z,8.52
2023-02-03T23:55:12.999Z,8.73
2023-02-03T23:57:42.825Z,7.10
